Etusivu
METAR-TAF:

METAR-TAF

Lentoasemat :

Odense, Tanska

Leveyspiiri: 55-29N, Pituuspiiri: 010-20E, korkeus merenpinnasta: 17 m

Tämänhetkinen sää

Tämä raportti tehtiin 35 minuuttia sitten, kello 14.50 UTC
Tuuli 7 kn luoteesta, vaihdellen lännen/lounaan ja pohjoisen välillä
Lämpötila 19°C
Kosteus 52%
Ilmanpaine 1008 hPa
Näkyvyys 10 km tai enemmän
ei pilviä alle 1500 m:ssä eikä cumulonimbus-pilviä

METAR: EKOD 021450Z 32007KT 240V360 CAVOK 19/09 Q1008

Aika: 17:25 (15:25 UTC)

Sääennuste

Tämä raportti tehtiin 3 tuntia ja 31 minuuttia sitten, kello 11.54 UTC
Ennuste voimassa 02. päivästä klo 12 UTC - 02. päivään klo 17 UTC
Tuuli 8 kn lännestä/luoteesta
Näkyvyys 10 km tai enemmän
Hajanaisia pilviä 3000 ft:n korkeudessa

TAF: EKOD 021154Z 0212/0217 29008KT 9999 SCT030

Säähavainnot ja -ennusteet yli 4000 lentoasemalta (METAR- ja TAF-raportit).

Käytössä olevat sääasemat on merkitty karttaan keltaisilla ja punaisilla pisteillä.

Aseta hiiri pisteen päälle nähdäksesi sääaseman nimen.

Klikkaa sitten nähdäksesi säähavainnot ja -ennusteet.

Kartan vaihtaminen: klikkaa mustalla rastilla varustettuja vihreitä pisteitä, niin voit zoomata sisään; viivalla varustettua vihreää pistettä, niin voit zoomata ulos tai vihreitä nuolia, niin pääset viereisille kartoille.


METAR-TAF: